createdAt,value
2019-01-08T00:00:20.961Z,4.30
2019-01-08T00:02:45.380Z,3.73
2019-01-08T00:05:09.866Z,3.83
2019-01-08T00:07:34.265Z,4.17
2019-01-08T00:09:58.692Z,3.87
2019-01-08T00:12:23.152Z,3.50
2019-01-08T00:14:47.576Z,3.63
2019-01-08T00:17:11.978Z,3.13
2019-01-08T00:19:36.503Z,3.90
2019-01-08T00:22:00.901Z,3.53
2019-01-08T00:24:25.327Z,4.30
2019-01-08T00:30:13.254Z,3.73
2019-01-08T00:32:37.645Z,3.47
2019-01-08T00:35:02.077Z,3.67
2019-01-08T00:37:26.473Z,3.73
2019-01-08T00:39:50.905Z,3.43
2019-01-08T00:42:15.316Z,3.03
2019-01-08T00:44:39.738Z,3.60
2019-01-08T00:47:04.141Z,3.20
2019-01-08T00:49:28.538Z,3.30
2019-01-08T00:51:52.954Z,3.00
2019-01-08T00:54:17.362Z,2.83
2019-01-08T00:56:41.791Z,2.93
2019-01-08T00:59:06.193Z,2.80
2019-01-08T01:01:30.612Z,2.93
2019-01-08T01:03:55.029Z,2.70
2019-01-08T01:06:19.590Z,2.30
2019-01-08T01:08:44.064Z,2.93
2019-01-08T01:11:08.488Z,2.57
2019-01-08T01:13:32.903Z,2.90
2019-01-08T01:15:57.333Z,2.87
2019-01-08T01:18:21.901Z,3.30
2019-01-08T01:20:46.327Z,3.20
2019-01-08T01:23:10.709Z,3.87
2019-01-08T01:25:35.114Z,3.10
2019-01-08T01:27:59.553Z,3.27
2019-01-08T01:30:23.947Z,2.47
2019-01-08T01:32:48.372Z,3.33
2019-01-08T01:35:12.827Z,3.37
2019-01-08T01:37:37.322Z,3.57
2019-01-08T01:40:01.718Z,3.80
2019-01-08T01:42:26.143Z,3.60
2019-01-08T01:44:50.532Z,3.50
2019-01-08T01:47:14.990Z,3.50
2019-01-08T01:49:39.380Z,3.80
2019-01-08T01:52:03.886Z,3.70
2019-01-08T01:54:28.290Z,3.93
2019-01-08T01:56:52.853Z,3.20
2019-01-08T01:59:17.282Z,3.00
2019-01-08T02:01:41.672Z,2.90
2019-01-08T02:04:06.105Z,3.50
2019-01-08T02:06:30.508Z,3.40
2019-01-08T02:08:54.953Z,3.60
2019-01-08T02:11:19.347Z,3.10
2019-01-08T02:13:44.648Z,3.20
2019-01-08T02:22:29.297Z,3.63
2019-01-08T02:24:53.736Z,3.47
2019-01-08T02:27:18.136Z,3.33
2019-01-08T02:29:42.576Z,3.57
2019-01-08T02:32:06.985Z,3.37
2019-01-08T02:34:31.399Z,2.83
2019-01-08T02:36:55.799Z,3.43
2019-01-08T02:43:01.352Z,2.77
2019-01-08T02:45:25.746Z,2.80
2019-01-08T02:50:20.051Z,3.17
2019-01-08T02:52:44.471Z,3.13
2019-01-08T02:55:08.866Z,4.30
2019-01-08T02:57:33.252Z,2.93
2019-01-08T02:59:57.665Z,2.37
2019-01-08T03:02:22.059Z,3.87
2019-01-08T03:04:46.475Z,3.27
2019-01-08T03:07:10.865Z,3.47
2019-01-08T03:09:36.936Z,3.63
2019-01-08T03:12:01.345Z,3.23
2019-01-08T03:14:25.763Z,3.00
2019-01-08T03:16:50.172Z,3.00
2019-01-08T03:19:14.556Z,3.60
2019-01-08T03:21:38.969Z,2.90
2019-01-08T03:24:03.350Z,2.93
2019-01-08T03:26:27.783Z,3.93
2019-01-08T03:28:52.180Z,3.60
2019-01-08T03:31:16.591Z,3.80
2019-01-08T03:33:40.982Z,5.00
2019-01-08T03:36:05.381Z,3.20
2019-01-08T03:38:29.765Z,2.63
2019-01-08T03:40:54.185Z,3.90
2019-01-08T03:43:18.600Z,3.20
2019-01-08T03:45:42.985Z,3.00
2019-01-08T03:48:07.412Z,2.70
2019-01-08T03:50:31.812Z,2.63
2019-01-08T03:52:56.227Z,3.50
2019-01-08T03:55:20.608Z,2.73
2019-01-08T03:57:45.025Z,3.40
2019-01-08T04:00:11.651Z,3.53
2019-01-08T04:02:36.146Z,3.20
2019-01-08T04:05:00.776Z,2.83
2019-01-08T04:07:25.347Z,3.00
2019-01-08T04:09:49.740Z,2.60
2019-01-08T04:12:14.132Z,2.40
2019-01-08T04:14:38.552Z,2.83
2019-01-08T04:17:02.958Z,3.20
2019-01-08T04:19:27.435Z,3.07
2019-01-08T04:21:51.813Z,2.90
2019-01-08T04:24:16.220Z,2.70
2019-01-08T04:26:40.618Z,3.33
2019-01-08T04:29:05.041Z,3.00
2019-01-08T04:31:29.418Z,2.93
2019-01-08T04:33:53.805Z,2.57
2019-01-08T04:36:18.220Z,2.80
2019-01-08T04:38:42.623Z,3.17
2019-01-08T04:41:07.041Z,2.67
2019-01-08T04:43:31.426Z,2.90
2019-01-08T04:45:55.841Z,3.47
2019-01-08T04:48:20.349Z,2.40
2019-01-08T04:50:44.752Z,2.83
2019-01-08T04:53:09.161Z,2.30
2019-01-08T04:55:33.569Z,2.67
2019-01-08T04:57:57.962Z,2.73
2019-01-08T05:00:22.347Z,3.10
2019-01-08T05:02:46.748Z,2.37
2019-01-08T05:05:11.147Z,2.67
2019-01-08T05:07:35.552Z,2.47
2019-01-08T05:09:59.941Z,2.77
2019-01-08T05:12:24.354Z,2.27
2019-01-08T05:14:48.745Z,2.37
2019-01-08T05:17:13.135Z,2.40
2019-01-08T05:19:37.537Z,2.73
2019-01-08T05:22:01.913Z,2.50
2019-01-08T05:24:26.330Z,2.80
2019-01-08T05:26:50.751Z,2.17
2019-01-08T05:29:15.153Z,1.93
2019-01-08T05:31:39.547Z,2.53
2019-01-08T05:34:03.958Z,2.50
2019-01-08T05:36:28.344Z,2.17
2019-01-08T05:38:52.761Z,3.20
2019-01-08T05:41:17.139Z,2.10
2019-01-08T05:43:41.571Z,1.80
2019-01-08T05:46:05.980Z,1.80
2019-01-08T05:48:30.378Z,1.90
2019-01-08T05:50:54.781Z,2.03
2019-01-08T05:53:19.182Z,2.23
2019-01-08T05:55:43.578Z,1.70
2019-01-08T05:58:07.966Z,2.67
2019-01-08T06:00:32.360Z,1.90
2019-01-08T06:02:56.750Z,3.13
2019-01-08T06:05:21.166Z,1.60
2019-01-08T06:07:45.544Z,2.10
2019-01-08T06:10:10.418Z,1.60
2019-01-08T06:12:34.809Z,1.80
2019-01-08T06:14:59.304Z,2.40
2019-01-08T06:17:23.716Z,2.13
2019-01-08T06:19:48.096Z,1.63
2019-01-08T06:22:12.499Z,1.80
2019-01-08T06:24:36.881Z,1.77
2019-01-08T06:27:01.273Z,1.63
2019-01-08T06:29:25.657Z,2.40
2019-01-08T06:31:50.110Z,1.90
2019-01-08T06:34:14.469Z,2.17
2019-01-08T06:36:38.850Z,2.47
2019-01-08T06:39:04.645Z,1.80
2019-01-08T06:41:29.031Z,2.37
2019-01-08T06:43:53.431Z,2.67
2019-01-08T06:46:17.803Z,3.03
2019-01-08T06:48:42.217Z,2.57
2019-01-08T06:51:06.623Z,2.10
2019-01-08T06:53:31.027Z,2.30
2019-01-08T06:55:55.427Z,2.07
2019-01-08T06:58:19.840Z,2.40
2019-01-08T07:00:44.224Z,2.60
2019-01-08T07:03:08.597Z,2.00
2019-01-08T07:05:33.008Z,2.60
2019-01-08T07:07:57.399Z,2.17
2019-01-08T07:10:21.809Z,2.60
2019-01-08T07:12:46.190Z,1.53
2019-01-08T07:15:10.594Z,2.20
2019-01-08T07:17:34.978Z,2.20
2019-01-08T07:19:59.400Z,2.00
2019-01-08T07:22:23.798Z,2.17
2019-01-08T07:24:48.223Z,1.90
2019-01-08T07:27:16.602Z,1.93
2019-01-08T07:29:38.692Z,1.83
2019-01-08T07:32:03.120Z,2.47
2019-01-08T07:34:27.510Z,2.13
2019-01-08T07:36:51.935Z,2.57
2019-01-08T07:39:16.320Z,1.80
2019-01-08T07:41:40.745Z,1.53
2019-01-08T07:44:05.122Z,2.30
2019-01-08T07:46:29.541Z,2.43
2019-01-08T07:48:53.940Z,2.10
2019-01-08T07:51:18.321Z,2.37
2019-01-08T07:53:42.734Z,2.97
2019-01-08T07:56:07.121Z,2.20
2019-01-08T07:58:31.655Z,2.50
2019-01-08T08:00:56.005Z,2.73
2019-01-08T08:03:20.415Z,2.90
2019-01-08T08:05:44.822Z,3.03
2019-01-08T08:08:09.225Z,2.73
2019-01-08T08:10:33.627Z,3.10
2019-01-08T08:12:58.036Z,2.80
2019-01-08T08:15:22.434Z,3.03
2019-01-08T08:17:46.829Z,3.27
2019-01-08T08:20:11.379Z,2.40
2019-01-08T08:22:35.787Z,2.23
2019-01-08T08:25:00.305Z,1.97
2019-01-08T08:27:24.650Z,2.17
2019-01-08T08:29:49.057Z,2.50
2019-01-08T08:32:13.453Z,2.13
2019-01-08T08:34:37.889Z,1.93
2019-01-08T08:37:02.319Z,2.43
2019-01-08T08:39:26.699Z,2.00
2019-01-08T08:41:51.082Z,1.63
2019-01-08T08:44:15.461Z,1.73
2019-01-08T08:46:39.865Z,2.10
2019-01-08T08:49:04.256Z,1.97
2019-01-08T08:51:28.664Z,1.53
2019-01-08T08:53:53.064Z,2.20
2019-01-08T08:56:17.491Z,3.20
2019-01-08T08:58:41.868Z,2.23
2019-01-08T09:01:07.041Z,1.83
2019-01-08T09:03:31.735Z,2.30
2019-01-08T09:05:56.135Z,1.50
2019-01-08T09:08:20.516Z,1.70
2019-01-08T09:10:44.914Z,2.53
2019-01-08T09:13:09.371Z,2.50
2019-01-08T09:15:33.748Z,2.00
2019-01-08T09:17:58.160Z,2.07
2019-01-08T09:20:22.562Z,1.90
2019-01-08T09:22:46.963Z,1.70
2019-01-08T09:25:11.363Z,1.90
2019-01-08T09:27:35.786Z,1.60
2019-01-08T09:30:00.208Z,1.70
2019-01-08T09:32:24.562Z,2.20
2019-01-08T09:34:48.969Z,2.10
2019-01-08T09:37:13.359Z,1.60
2019-01-08T09:39:37.770Z,1.57
2019-01-08T09:42:02.142Z,1.97
2019-01-08T09:44:26.560Z,1.70
2019-01-08T09:46:50.941Z,1.40
2019-01-08T09:49:15.365Z,1.80
2019-01-08T09:51:39.757Z,1.90
2019-01-08T09:54:04.269Z,1.37
2019-01-08T09:56:28.661Z,2.30
2019-01-08T09:58:53.067Z,1.37
2019-01-08T10:01:23.801Z,1.63
2019-01-08T10:03:43.544Z,2.07
2019-01-08T10:06:07.968Z,1.40
2019-01-08T10:08:34.683Z,1.23
2019-01-08T10:10:59.096Z,1.30
2019-01-08T10:13:23.512Z,1.40
2019-01-08T10:15:47.916Z,0.93
2019-01-08T10:18:12.326Z,0.87
2019-01-08T10:20:36.730Z,1.60
2019-01-08T10:23:01.110Z,1.43
2019-01-08T10:25:25.499Z,1.20
2019-01-08T10:27:49.910Z,1.50
2019-01-08T10:30:14.302Z,1.13
2019-01-08T10:32:38.712Z,1.73
2019-01-08T10:35:03.161Z,1.20
2019-01-08T10:37:27.593Z,2.00
2019-01-08T10:39:51.990Z,2.47
2019-01-08T10:42:16.410Z,2.30
2019-01-08T10:44:40.799Z,2.00
2019-01-08T10:47:05.202Z,2.17
2019-01-08T10:49:29.606Z,3.27
2019-01-08T10:51:54.000Z,2.90
2019-01-08T10:54:18.429Z,1.67
2019-01-08T10:56:42.830Z,2.60
2019-01-08T10:59:07.745Z,3.50
2019-01-08T11:01:40.267Z,2.67
2019-01-08T11:03:58.502Z,2.40
2019-01-08T11:06:22.912Z,2.53
2019-01-08T11:08:47.347Z,2.80
2019-01-08T11:11:11.735Z,3.00
2019-01-08T11:13:36.127Z,3.57
2019-01-08T11:16:00.586Z,3.07
2019-01-08T11:18:24.929Z,2.93
2019-01-08T11:20:49.348Z,3.23
2019-01-08T11:23:13.746Z,3.67
2019-01-08T11:25:38.177Z,3.03
2019-01-08T11:28:02.570Z,2.90
2019-01-08T11:30:26.974Z,2.00
2019-01-08T11:32:51.371Z,2.90
2019-01-08T11:35:15.777Z,1.93
2019-01-08T11:37:40.172Z,2.80
2019-01-08T11:40:06.404Z,2.40
2019-01-08T11:42:30.795Z,2.87
2019-01-08T11:44:55.176Z,2.10
2019-01-08T11:47:19.575Z,2.57
2019-01-08T11:49:43.969Z,2.23
2019-01-08T11:52:08.387Z,2.40
2019-01-08T11:54:40.699Z,2.80
2019-01-08T11:56:58.901Z,2.90
2019-01-08T11:59:23.311Z,2.70
2019-01-08T12:01:47.872Z,3.23
2019-01-08T12:04:12.286Z,3.20
2019-01-08T12:06:36.683Z,3.53
2019-01-08T12:09:01.105Z,2.60
2019-01-08T12:11:25.489Z,2.70
2019-01-08T12:13:49.915Z,2.47
2019-01-08T12:16:14.310Z,2.33
2019-01-08T12:18:40.259Z,1.90
2019-01-08T12:21:04.656Z,2.90
2019-01-08T12:23:29.070Z,2.93
2019-01-08T12:25:53.467Z,2.47
2019-01-08T12:28:17.858Z,3.40
2019-01-08T12:30:42.279Z,2.53
2019-01-08T12:33:06.678Z,3.83
2019-01-08T12:35:31.102Z,2.70
2019-01-08T12:37:55.502Z,2.67
2019-01-08T12:40:19.905Z,3.07
2019-01-08T12:42:44.298Z,2.70
2019-01-08T12:45:08.769Z,3.90
2019-01-08T12:47:33.169Z,2.53
2019-01-08T12:49:57.591Z,3.40
2019-01-08T12:52:22.027Z,3.73
2019-01-08T12:54:46.410Z,3.10
2019-01-08T12:57:10.827Z,2.93
2019-01-08T12:59:35.243Z,3.00
2019-01-08T13:01:59.664Z,2.90
2019-01-08T13:04:24.049Z,3.17
2019-01-08T13:06:48.463Z,2.70
2019-01-08T13:09:12.839Z,3.67
2019-01-08T13:11:37.260Z,3.23
2019-01-08T13:14:01.677Z,3.63
2019-01-08T13:16:26.061Z,3.23
2019-01-08T13:18:50.478Z,3.00
2019-01-08T13:21:14.884Z,3.87
2019-01-08T13:23:39.292Z,3.43
2019-01-08T13:26:03.685Z,3.97
2019-01-08T13:28:28.102Z,3.27
2019-01-08T13:30:52.480Z,3.67
2019-01-08T13:33:16.898Z,4.00
2019-01-08T13:35:41.265Z,3.30
2019-01-08T13:38:05.700Z,3.37
2019-01-08T13:40:30.121Z,4.00
2019-01-08T13:42:54.523Z,2.77
2019-01-08T13:45:18.933Z,3.43
2019-01-08T13:47:43.315Z,3.30
2019-01-08T13:50:08.891Z,3.80
2019-01-08T13:52:33.299Z,2.53
2019-01-08T13:54:57.709Z,3.20
2019-01-08T13:57:22.104Z,3.33
2019-01-08T13:59:46.523Z,2.03
2019-01-08T14:02:10.913Z,2.97
2019-01-08T14:04:35.329Z,3.00
2019-01-08T14:06:59.728Z,3.57
2019-01-08T14:09:24.973Z,3.90
2019-01-08T14:11:49.390Z,3.40
2019-01-08T14:14:13.793Z,3.00
2019-01-08T14:16:38.213Z,3.37
2019-01-08T14:19:02.632Z,2.67
2019-01-08T14:21:27.026Z,2.80
2019-01-08T14:23:51.406Z,3.03
2019-01-08T14:26:15.827Z,3.67
2019-01-08T14:28:40.236Z,2.93
2019-01-08T14:31:04.633Z,3.40
2019-01-08T14:33:29.043Z,2.80
2019-01-08T14:35:53.511Z,3.33
2019-01-08T14:38:17.959Z,2.80
2019-01-08T14:40:42.344Z,2.87
2019-01-08T14:43:13.952Z,2.60
2019-01-08T14:45:32.833Z,2.63
2019-01-08T14:47:57.248Z,2.30
2019-01-08T14:50:21.819Z,3.40
2019-01-08T14:52:46.200Z,3.07
2019-01-08T14:55:10.610Z,3.80
2019-01-08T14:57:35.001Z,3.27
2019-01-08T14:59:59.423Z,3.77
2019-01-08T15:02:26.876Z,3.10
2019-01-08T15:04:51.303Z,3.67
2019-01-08T15:07:15.714Z,4.07
2019-01-08T15:09:40.133Z,3.60
2019-01-08T15:12:04.531Z,4.37
2019-01-08T15:14:28.954Z,2.97
2019-01-08T15:16:53.354Z,4.03
2019-01-08T15:19:17.794Z,3.57
2019-01-08T15:21:42.241Z,4.57
2019-01-08T15:24:06.619Z,3.33
2019-01-08T15:26:31.039Z,3.47
2019-01-08T15:28:55.447Z,4.40
2019-01-08T15:31:19.875Z,3.37
2019-01-08T15:33:44.286Z,3.30
2019-01-08T15:36:08.702Z,3.80
2019-01-08T15:38:33.107Z,4.33
2019-01-08T15:40:57.530Z,3.37
2019-01-08T15:43:21.935Z,3.60
2019-01-08T15:45:46.340Z,3.60
2019-01-08T15:48:10.770Z,3.60
2019-01-08T15:50:35.164Z,3.33
2019-01-08T15:53:02.565Z,3.70
2019-01-08T15:55:26.949Z,3.20
2019-01-08T15:57:51.356Z,3.93
2019-01-08T16:00:15.755Z,3.27
2019-01-08T16:02:40.183Z,3.70
2019-01-08T16:05:06.493Z,3.33
2019-01-08T16:07:30.929Z,2.90
2019-01-08T16:09:57.662Z,3.50
2019-01-08T16:12:22.073Z,2.77
2019-01-08T16:14:46.499Z,2.90
2019-01-08T16:17:10.891Z,2.53
2019-01-08T16:19:35.318Z,3.30
2019-01-08T16:21:59.710Z,3.23
2019-01-08T16:24:24.117Z,2.97
2019-01-08T16:26:48.509Z,3.00
2019-01-08T16:29:12.994Z,2.97
2019-01-08T16:31:37.406Z,2.80
2019-01-08T16:34:01.802Z,1.87
2019-01-08T16:36:26.201Z,1.80
2019-01-08T16:38:50.601Z,2.20
2019-01-08T16:41:15.041Z,1.63
2019-01-08T16:43:39.517Z,1.70
2019-01-08T16:46:03.925Z,1.60
2019-01-08T16:48:28.336Z,1.67
2019-01-08T16:50:52.753Z,1.60
2019-01-08T16:53:17.136Z,1.30
2019-01-08T16:55:41.637Z,1.40
2019-01-08T16:58:06.060Z,1.27
2019-01-08T17:00:30.466Z,1.50
2019-01-08T17:02:54.892Z,1.70
2019-01-08T17:05:19.284Z,1.57
2019-01-08T17:07:43.701Z,1.30
2019-01-08T17:10:08.672Z,1.70
2019-01-08T17:12:33.095Z,1.20
2019-01-08T17:14:57.497Z,1.37
2019-01-08T17:17:26.646Z,1.50
2019-01-08T17:19:51.073Z,1.40
2019-01-08T17:22:15.597Z,1.47
2019-01-08T17:24:40.019Z,1.30
2019-01-08T17:27:04.393Z,1.23
2019-01-08T17:29:28.825Z,1.20
2019-01-08T17:31:53.232Z,2.07
2019-01-08T17:34:17.643Z,1.70
2019-01-08T17:36:42.057Z,1.70
2019-01-08T17:39:06.927Z,1.53
2019-01-08T17:41:31.320Z,1.67
2019-01-08T17:43:55.740Z,1.73
2019-01-08T17:46:20.226Z,1.57
2019-01-08T17:48:44.627Z,1.50
2019-01-08T17:51:09.033Z,1.13
2019-01-08T17:53:33.438Z,1.77
2019-01-08T17:55:57.872Z,1.90
2019-01-08T17:58:33.436Z,1.60
2019-01-08T18:00:57.850Z,1.67
2019-01-08T18:03:22.252Z,1.30
2019-01-08T18:05:46.659Z,1.63
2019-01-08T18:08:11.053Z,1.70
2019-01-08T18:10:35.470Z,1.43
2019-01-08T18:12:59.851Z,1.70
2019-01-08T18:15:26.991Z,2.27
2019-01-08T18:17:51.407Z,2.63
2019-01-08T18:20:15.822Z,2.17
2019-01-08T18:22:40.320Z,2.40
2019-01-08T18:25:05.340Z,2.53
2019-01-08T18:27:29.766Z,1.93
2019-01-08T18:29:54.158Z,2.20
2019-01-08T18:34:53.559Z,1.90
2019-01-08T18:37:17.991Z,1.50
2019-01-08T18:39:42.404Z,2.03
2019-01-08T18:42:06.808Z,1.70
2019-01-08T18:44:31.217Z,2.17
2019-01-08T18:46:55.590Z,2.07
2019-01-08T18:49:20.018Z,1.90
2019-01-08T18:51:44.396Z,1.90
2019-01-08T18:54:08.846Z,2.30
2019-01-08T18:56:33.233Z,1.30
2019-01-08T18:58:57.663Z,1.70
2019-01-08T19:01:22.060Z,1.47
2019-01-08T19:03:46.485Z,1.77
2019-01-08T19:06:10.896Z,1.57
2019-01-08T19:09:11.130Z,1.50
2019-01-08T19:11:35.519Z,1.57
2019-01-08T19:13:59.903Z,1.67
2019-01-08T19:16:24.398Z,1.57
2019-01-08T19:18:48.827Z,1.20
2019-01-08T19:21:13.227Z,1.30
2019-01-08T19:23:37.639Z,1.90
2019-01-08T19:26:02.087Z,1.70
2019-01-08T19:28:26.465Z,1.50
2019-01-08T19:30:50.892Z,1.73
2019-01-08T19:33:15.275Z,1.70
2019-01-08T19:35:39.699Z,1.77
2019-01-08T19:38:04.117Z,1.30
2019-01-08T19:40:28.524Z,1.67
2019-01-08T19:42:53.017Z,1.40
2019-01-08T19:45:17.448Z,1.70
2019-01-08T19:47:41.871Z,1.40
2019-01-08T19:50:08.097Z,1.60
2019-01-08T19:52:32.539Z,1.43
2019-01-08T19:54:57.029Z,1.33
2019-01-08T19:57:21.451Z,1.20
2019-01-08T19:59:45.854Z,1.37
2019-01-08T20:02:10.280Z,1.60
2019-01-08T20:04:34.698Z,1.20
2019-01-08T20:06:59.139Z,1.33
2019-01-08T20:09:25.483Z,2.03
2019-01-08T20:11:49.688Z,1.73
2019-01-08T20:14:14.154Z,2.17
2019-01-08T20:16:38.537Z,1.57
2019-01-08T20:19:02.968Z,1.60
2019-01-08T20:21:27.364Z,1.40
2019-01-08T20:23:51.797Z,1.63
2019-01-08T20:26:16.261Z,1.73
2019-01-08T20:28:40.632Z,1.53
2019-01-08T20:31:05.038Z,1.67
2019-01-08T20:33:29.455Z,1.70
2019-01-08T20:35:53.950Z,1.50
2019-01-08T20:38:18.331Z,1.40
2019-01-08T20:40:42.736Z,1.40
2019-01-08T20:43:07.154Z,1.50
2019-01-08T20:45:31.729Z,1.20
2019-01-08T20:47:56.191Z,1.70
2019-01-08T20:50:20.532Z,1.10
2019-01-08T20:52:44.930Z,0.97
2019-01-08T20:55:09.371Z,1.27
2019-01-08T20:57:33.744Z,1.30
2019-01-08T20:59:58.159Z,1.43
2019-01-08T21:02:25.608Z,1.47
2019-01-08T21:04:50.020Z,1.23
2019-01-08T21:07:14.423Z,1.33
2019-01-08T21:09:38.863Z,1.47
2019-01-08T21:12:03.232Z,1.60
2019-01-08T21:14:27.620Z,1.17
2019-01-08T21:16:52.043Z,1.77
2019-01-08T21:19:16.440Z,1.20
2019-01-08T21:21:40.902Z,1.30
2019-01-08T21:24:05.285Z,1.40
2019-01-08T21:26:29.722Z,1.50
2019-01-08T21:28:54.089Z,1.43
2019-01-08T21:31:18.490Z,1.40
2019-01-08T21:33:42.895Z,1.50
2019-01-08T21:36:07.323Z,1.50
2019-01-08T21:38:31.711Z,1.10
2019-01-08T21:40:56.094Z,1.03
2019-01-08T21:43:20.511Z,1.40
2019-01-08T21:45:44.894Z,1.47
2019-01-08T21:48:09.322Z,1.57
2019-01-08T21:50:34.103Z,1.50
2019-01-08T21:52:58.496Z,1.60
2019-01-08T21:55:23.460Z,1.77
2019-01-08T21:57:47.858Z,1.57
2019-01-08T22:00:12.284Z,1.50
2019-01-08T22:02:37.445Z,1.73
2019-01-08T22:05:01.843Z,1.60
2019-01-08T22:07:26.384Z,1.43
2019-01-08T22:09:51.252Z,1.80
2019-01-08T22:12:15.685Z,1.50
2019-01-08T22:14:40.079Z,1.70
2019-01-08T22:17:04.478Z,1.50
2019-01-08T22:19:28.858Z,1.67
2019-01-08T22:21:53.263Z,1.80
2019-01-08T22:24:17.649Z,1.60
2019-01-08T22:26:42.053Z,1.83
2019-01-08T22:29:06.468Z,1.67
2019-01-08T22:31:30.854Z,1.50
2019-01-08T22:33:55.274Z,1.70
2019-01-08T22:36:19.735Z,1.50
2019-01-08T22:38:44.138Z,1.53
2019-01-08T22:41:08.603Z,1.70
2019-01-08T22:43:33.075Z,1.50
2019-01-08T22:45:57.476Z,1.80
2019-01-08T22:48:22.449Z,1.40
2019-01-08T22:50:46.833Z,1.60
2019-01-08T22:53:11.235Z,1.30
2019-01-08T22:55:35.645Z,1.60
2019-01-08T22:58:01.989Z,1.50
2019-01-08T23:00:44.203Z,1.70
2019-01-08T23:03:08.591Z,1.50
2019-01-08T23:05:33.070Z,1.50
2019-01-08T23:07:57.523Z,1.40
2019-01-08T23:10:21.925Z,1.90
2019-01-08T23:12:46.315Z,1.60
2019-01-08T23:15:10.736Z,1.80
2019-01-08T23:17:35.194Z,1.73
2019-01-08T23:19:59.575Z,1.73
2019-01-08T23:22:24.010Z,1.77
2019-01-08T23:24:48.407Z,1.80
2019-01-08T23:27:12.827Z,1.93
2019-01-08T23:29:37.239Z,1.60
2019-01-08T23:32:01.674Z,2.17
2019-01-08T23:34:26.059Z,1.67
2019-01-08T23:36:50.467Z,1.67
2019-01-08T23:39:14.878Z,1.77
2019-01-08T23:41:39.301Z,1.90
2019-01-08T23:44:03.756Z,1.70
2019-01-08T23:46:28.148Z,1.77
2019-01-08T23:48:52.551Z,1.40
2019-01-08T23:51:16.963Z,1.80
2019-01-08T23:53:42.737Z,2.10
2019-01-08T23:56:07.196Z,1.87
2019-01-08T23:58:31.611Z,1.87
